North Battleford Airport
CYQW : now visible

Airfield :











YOU CAN JOIN US ON...

 
LOGIN :

Register | Disclaimer

   EN    FR    IT 

 









Legend :    VFR   Marginal VFR   IFR   Intensive IFR   Very Intensive IFR
Visi :
Ceiling :
>= 8 km
>= 3000ft
5 to 8 km
1000 to 3000 ft
1500m to 5 km
500 to 1000 ft
800 to 1500m
200 to 500 ft
< 800m
< 200 ft
Symbols :   Thunderstorms  Fog  Heavy snow  Heavy precipitations  Wind > 20 kt






- Airport Elevation : 1799 ft
- IATA code : YQW


CYQW - North Battleford

CURRENT METAR :
  • 172000Z AUTO 32015G22KT 9SM -SN FEW110 M17/M21 A3020 RMK SLP280

EXPIRED METARs :
  • 171949Z AUTO 32018KT 7SM -SN FEW016 SCT026 BKN110 M18/M21 A3019 RMK SLP277
  • 171940Z AUTO 33017KT 3SM HZ FEW016 BKN026 BKN110 M17/M21 A3019 RMK SLP275
  • 171900Z AUTO 33015KT 2 1/2SM -SN BKN030 OVC036 M17/M21 A3018 RMK SLP271
  • 171839Z AUTO 33014KT 4SM -SN OVC026 M17/M21 A3018 RMK SLP271
  • 171831Z AUTO 32013KT 5SM -SN OVC024 M18/M21 A3018 RMK SLP271
  • 171807Z AUTO 32015KT 6SM -SN FEW024 BKN036 BKN065 OVC092 M18/M21 A3017 RMK SLP270

TAF AMD TAF CYQW
Valid from the 17 at 19:00 until the 18 at 06:00 UTC


171923Z 1719/1806 33015KT P6SM BKN025 BKN080
TEMPO 1719/1720 21/2SM -SHSN BKN020 OVC060
FM172000 32012KT P6SM FEW020 SCT080
TEMPO 1720/1723 5SM -SN BKN020 OVC060
FM172300 33014KT P6SM FEW040
BECMG 1802/1804 30008KT RMK FCST BASED ON AUTO OBS. NXT FCST BY 180000Z



MET'MAP, your aeronautical weather chart ! - Copyright ORBIFLY December 2007 - Disclaimer

ORBIFLY MET'MAP TEAM :

Programming & Development : Alexandra Zaïnal
Concept & original design : Baudouin d'Aumeries
Assistance for programming : Marc-Olivier Méhu
Technical & hardware support : Manuel Goepfert

Contact : metmap@orbifly.com




SOURCES & CREDITS :

   NOAA       Earth
Advisory